sensor_id;sensor_type;location;lat;lon;timestamp;pressure;altitude;pressure_sealevel;temperature;humidity
55540;BME280;41384;51.418;7.286;2023-03-01T00:02:05;101227.38;;;0.87;72.26
55540;BME280;41384;51.418;7.286;2023-03-01T00:04:30;101233.81;;;0.82;73.29
55540;BME280;41384;51.418;7.286;2023-03-01T00:06:56;101232.31;;;0.53;73.27
55540;BME280;41384;51.418;7.286;2023-03-01T00:09:21;101236.63;;;0.79;72.76
55540;BME280;41384;51.418;7.286;2023-03-01T00:11:46;101232.19;;;0.42;73.80
55540;BME280;41384;51.418;7.286;2023-03-01T00:14:12;101236.53;;;0.67;73.71
55540;BME280;41384;51.418;7.286;2023-03-01T00:16:40;101228.09;;;0.90;71.93
55540;BME280;41384;51.418;7.286;2023-03-01T00:19:07;101223.53;;;0.80;72.44
55540;BME280;41384;51.418;7.286;2023-03-01T00:21:32;101226.13;;;0.80;72.73
55540;BME280;41384;51.418;7.286;2023-03-01T00:24:00;101214.38;;;0.75;73.01
55540;BME280;41384;51.418;7.286;2023-03-01T00:26:27;101216.69;;;0.79;72.20
55540;BME280;41384;51.418;7.286;2023-03-01T00:28:54;101206.88;;;0.83;72.09
55540;BME280;41384;51.418;7.286;2023-03-01T00:31:26;101210.03;;;0.75;72.89
55540;BME280;41384;51.418;7.286;2023-03-01T00:33:53;101207.91;;;0.30;74.36
55540;BME280;41384;51.418;7.286;2023-03-01T00:36:23;101213.09;;;0.04;76.13
55540;BME280;41384;51.418;7.286;2023-03-01T00:38:49;101205.91;;;0.47;75.03
55540;BME280;41384;51.418;7.286;2023-03-01T00:41:16;101198.47;;;0.79;72.84
55540;BME280;41384;51.418;7.286;2023-03-01T00:43:42;101204.25;;;0.58;72.95
55540;BME280;41384;51.418;7.286;2023-03-01T00:46:11;101207.84;;;-0.35;76.97
55540;BME280;41384;51.418;7.286;2023-03-01T00:48:37;101198.78;;;-0.55;78.27
55540;BME280;41384;51.418;7.286;2023-03-01T00:51:08;101186.69;;;-0.28;78.01
55540;BME280;41384;51.418;7.286;2023-03-01T00:53:34;101191.06;;;-0.56;80.16
55540;BME280;41384;51.418;7.286;2023-03-01T00:55:59;101182.06;;;0.16;76.95
55540;BME280;41384;51.418;7.286;2023-03-01T00:58:25;101185.78;;;0.37;74.52
55540;BME280;41384;51.418;7.286;2023-03-01T01:00:50;101177.13;;;0.37;73.40
55540;BME280;41384;51.418;7.286;2023-03-01T01:03:17;101186.50;;;0.39;73.63
55540;BME280;41384;51.418;7.286;2023-03-01T01:05:42;101185.25;;;0.45;72.60
55540;BME280;41384;51.418;7.286;2023-03-01T01:08:07;101184.75;;;0.27;73.14
55540;BME280;41384;51.418;7.286;2023-03-01T01:10:34;101174.91;;;0.06;74.89
55540;BME280;41384;51.418;7.286;2023-03-01T01:13:00;101175.38;;;0.24;73.80
55540;BME280;41384;51.418;7.286;2023-03-01T01:15:26;101172.47;;;0.16;73.66
55540;BME280;41384;51.418;7.286;2023-03-01T01:17:51;101169.78;;;0.05;74.75
55540;BME280;41384;51.418;7.286;2023-03-01T01:20:17;101170.09;;;0.13;73.62
55540;BME280;41384;51.418;7.286;2023-03-01T01:22:42;101160.13;;;0.07;74.45
55540;BME280;41384;51.418;7.286;2023-03-01T01:25:08;101166.16;;;0.07;74.51
55540;BME280;41384;51.418;7.286;2023-03-01T01:27:33;101162.94;;;0.04;74.44
55540;BME280;41384;51.418;7.286;2023-03-01T01:29:59;101167.72;;;0.10;73.74
55540;BME280;41384;51.418;7.286;2023-03-01T01:32:24;101163.06;;;-0.92;77.47
55540;BME280;41384;51.418;7.286;2023-03-01T01:34:49;101159.53;;;-0.50;78.69
55540;BME280;41384;51.418;7.286;2023-03-01T01:37:15;101156.09;;;0.03;75.43
55540;BME280;41384;51.418;7.286;2023-03-01T01:39:40;101155.44;;;0.12;74.15
55540;BME280;41384;51.418;7.286;2023-03-01T01:42:05;101150.06;;;0.02;74.52
55540;BME280;41384;51.418;7.286;2023-03-01T01:44:33;101156.06;;;-0.23;76.57
55540;BME280;41384;51.418;7.286;2023-03-01T01:47:02;101158.06;;;-0.95;79.18
55540;BME280;41384;51.418;7.286;2023-03-01T01:52:33;101148.28;;;-1.46;81.69
55540;BME280;41384;51.418;7.286;2023-03-01T01:55:06;101153.69;;;-1.07;80.91
55540;BME280;41384;51.418;7.286;2023-03-01T01:57:36;101155.22;;;-0.37;78.70
55540;BME280;41384;51.418;7.286;2023-03-01T02:00:12;101153.25;;;-0.07;76.29
55540;BME280;41384;51.418;7.286;2023-03-01T02:02:39;101158.59;;;0.04;75.82
55540;BME280;41384;51.418;7.286;2023-03-01T02:05:10;101146.72;;;0.13;74.81
55540;BME280;41384;51.418;7.286;2023-03-01T02:07:39;101139.16;;;0.23;74.38
55540;BME280;41384;51.418;7.286;2023-03-01T02:10:05;101136.13;;;0.16;74.29
55540;BME280;41384;51.418;7.286;2023-03-01T02:12:31;101141.22;;;0.05;74.14
55540;BME280;41384;51.418;7.286;2023-03-01T02:14:57;101140.91;;;0.22;73.80
55540;BME280;41384;51.418;7.286;2023-03-01T02:17:23;101122.41;;;0.14;74.02
55540;BME280;41384;51.418;7.286;2023-03-01T02:19:59;101128.88;;;-0.05;74.91
55540;BME280;41384;51.418;7.286;2023-03-01T02:22:31;101128.66;;;0.11;73.91
55540;BME280;41384;51.418;7.286;2023-03-01T02:30:12;101130.84;;;0.05;73.53
55540;BME280;41384;51.418;7.286;2023-03-01T02:32:39;101132.44;;;-0.72;75.10
55540;BME280;41384;51.418;7.286;2023-03-01T02:35:08;101130.47;;;-0.68;79.07
55540;BME280;41384;51.418;7.286;2023-03-01T02:37:35;101132.19;;;-0.03;74.80
55540;BME280;41384;51.418;7.286;2023-03-01T02:40:04;101132.94;;;-0.01;74.05
55540;BME280;41384;51.418;7.286;2023-03-01T02:42:34;101137.81;;;-0.09;73.85
55540;BME280;41384;51.418;7.286;2023-03-01T02:45:00;101138.31;;;-0.04;74.24
55540;BME280;41384;51.418;7.286;2023-03-01T02:47:25;101128.25;;;-0.21;73.98
55540;BME280;41384;51.418;7.286;2023-03-01T02:49:51;101132.53;;;-0.20;74.75
55540;BME280;41384;51.418;7.286;2023-03-01T02:52:20;101123.38;;;-0.26;74.30
55540;BME280;41384;51.418;7.286;2023-03-01T02:54:52;101127.31;;;-0.33;74.99
55540;BME280;41384;51.418;7.286;2023-03-01T02:57:21;101127.44;;;-0.09;74.39
55540;BME280;41384;51.418;7.286;2023-03-01T02:59:48;101132.66;;;-0.62;77.41
55540;BME280;41384;51.418;7.286;2023-03-01T03:02:26;101128.88;;;-0.18;75.04
55540;BME280;41384;51.418;7.286;2023-03-01T03:05:13;101120.06;;;-0.41;75.28
55540;BME280;41384;51.418;7.286;2023-03-01T03:07:42;101116.44;;;-0.25;75.89
55540;BME280;41384;51.418;7.286;2023-03-01T03:10:20;101129.88;;;-0.46;75.97
55540;BME280;41384;51.418;7.286;2023-03-01T03:12:53;101119.69;;;-1.03;78.00
55540;BME280;41384;51.418;7.286;2023-03-01T03:15:20;101123.03;;;-0.47;76.02
55540;BME280;41384;51.418;7.286;2023-03-01T03:17:46;101116.63;;;-0.41;76.64
55540;BME280;41384;51.418;7.286;2023-03-01T03:20:14;101110.41;;;-0.26;75.76
55540;BME280;41384;51.418;7.286;2023-03-01T03:22:45;101117.97;;;-0.10;74.77
55540;BME280;41384;51.418;7.286;2023-03-01T03:25:14;101118.59;;;-0.19;75.39
55540;BME280;41384;51.418;7.286;2023-03-01T03:27:41;101112.06;;;-0.12;74.39
55540;BME280;41384;51.418;7.286;2023-03-01T03:30:11;101113.56;;;-1.01;78.75
55540;BME280;41384;51.418;7.286;2023-03-01T03:32:41;101115.31;;;-1.29;79.99
55540;BME280;41384;51.418;7.286;2023-03-01T03:35:09;101111.22;;;-1.19;81.11
55540;BME280;41384;51.418;7.286;2023-03-01T03:37:39;101108.31;;;-0.34;76.87
55540;BME280;41384;51.418;7.286;2023-03-01T03:40:23;101108.47;;;-0.63;76.51
55540;BME280;41384;51.418;7.286;2023-03-01T03:42:49;101110.78;;;-0.45;77.29
55540;BME280;41384;51.418;7.286;2023-03-01T03:45:18;101104.81;;;-0.33;75.71
55540;BME280;41384;51.418;7.286;2023-03-01T03:47:43;101108.41;;;-0.35;74.98
55540;BME280;41384;51.418;7.286;2023-03-01T03:50:13;101103.50;;;-0.66;77.65
55540;BME280;41384;51.418;7.286;2023-03-01T03:52:39;101090.25;;;-0.35;75.95
55540;BME280;41384;51.418;7.286;2023-03-01T03:55:06;101080.72;;;-0.35;75.73
55540;BME280;41384;51.418;7.286;2023-03-01T03:57:35;101078.63;;;-0.42;75.48
55540;BME280;41384;51.418;7.286;2023-03-01T04:00:01;101076.75;;;-0.53;76.07
55540;BME280;41384;51.418;7.286;2023-03-01T04:02:29;101070.22;;;-0.59;75.56
55540;BME280;41384;51.418;7.286;2023-03-01T04:04:55;101068.97;;;-0.66;75.88
55540;BME280;41384;51.418;7.286;2023-03-01T04:07:20;101077.56;;;-0.79;76.52
55540;BME280;41384;51.418;7.286;2023-03-01T04:09:45;101073.34;;;-0.54;75.87
55540;BME280;41384;51.418;7.286;2023-03-01T04:12:10;101081.09;;;-0.80;76.93
55540;BME280;41384;51.418;7.286;2023-03-01T04:14:36;101086.41;;;-0.55;75.96
55540;BME280;41384;51.418;7.286;2023-03-01T04:17:02;101085.88;;;-0.61;75.69
55540;BME280;41384;51.418;7.286;2023-03-01T04:19:32;101076.44;;;-0.62;75.81
55540;BME280;41384;51.418;7.286;2023-03-01T04:22:02;101093.09;;;-1.19;79.97
55540;BME280;41384;51.418;7.286;2023-03-01T04:24:32;101087.81;;;-1.18;80.29
55540;BME280;41384;51.418;7.286;2023-03-01T04:26:58;101092.34;;;-1.63;81.96
55540;BME280;41384;51.418;7.286;2023-03-01T04:29:23;101087.66;;;-1.56;82.60
55540;BME280;41384;51.418;7.286;2023-03-01T04:31:48;101085.19;;;-1.87;83.40
55540;BME280;41384;51.418;7.286;2023-03-01T04:34:14;101087.56;;;-2.27;86.69
55540;BME280;41384;51.418;7.286;2023-03-01T04:36:39;101081.69;;;-1.44;83.34
55540;BME280;41384;51.418;7.286;2023-03-01T04:39:05;101070.81;;;-1.22;80.09
55540;BME280;41384;51.418;7.286;2023-03-01T04:41:37;101075.72;;;-1.59;81.02
55540;BME280;41384;51.418;7.286;2023-03-01T04:44:03;101086.16;;;-1.19;81.78
55540;BME280;41384;51.418;7.286;2023-03-01T04:46:29;101075.72;;;-1.04;79.82
55540;BME280;41384;51.418;7.286;2023-03-01T04:48:54;101084.31;;;-0.63;77.51
55540;BME280;41384;51.418;7.286;2023-03-01T04:51:20;101079.72;;;-0.85;77.58
55540;BME280;41384;51.418;7.286;2023-03-01T04:53:45;101075.34;;;-1.67;80.63
55540;BME280;41384;51.418;7.286;2023-03-01T04:56:11;101076.44;;;-1.57;82.26
55540;BME280;41384;51.418;7.286;2023-03-01T04:58:36;101071.00;;;-1.25;82.09
55540;BME280;41384;51.418;7.286;2023-03-01T05:01:08;101067.59;;;-0.72;77.84
55540;BME280;41384;51.418;7.286;2023-03-01T05:03:40;101068.72;;;-1.86;81.68
55540;BME280;41384;51.418;7.286;2023-03-01T05:06:05;101070.88;;;-1.23;81.82
55540;BME280;41384;51.418;7.286;2023-03-01T05:08:30;101060.72;;;-1.26;81.98
55540;BME280;41384;51.418;7.286;2023-03-01T05:10:59;101065.03;;;-1.40;82.44
55540;BME280;41384;51.418;7.286;2023-03-01T05:13:24;101070.50;;;-1.44;81.87
55540;BME280;41384;51.418;7.286;2023-03-01T05:15:58;101070.31;;;-1.14;80.66
55540;BME280;41384;51.418;7.286;2023-03-01T05:18:25;101076.59;;;-0.91;79.14
55540;BME280;41384;51.418;7.286;2023-03-01T05:20:51;101076.44;;;-0.75;78.43
55540;BME280;41384;51.418;7.286;2023-03-01T05:23:17;101079.25;;;-1.05;79.22
55540;BME280;41384;51.418;7.286;2023-03-01T05:25:43;101077.97;;;-0.85;78.25
55540;BME280;41384;51.418;7.286;2023-03-01T05:28:12;101070.06;;;-0.83;77.91
55540;BME280;41384;51.418;7.286;2023-03-01T05:30:38;101072.59;;;-0.82;77.69
55540;BME280;41384;51.418;7.286;2023-03-01T05:33:06;101063.56;;;-1.16;79.97
55540;BME280;41384;51.418;7.286;2023-03-01T05:35:38;101062.78;;;-1.04;78.89
55540;BME280;41384;51.418;7.286;2023-03-01T05:38:04;101063.38;;;-1.00;78.36
55540;BME280;41384;51.418;7.286;2023-03-01T05:40:29;101060.47;;;-1.09;78.19
55540;BME280;41384;51.418;7.286;2023-03-01T05:42:56;101060.78;;;-1.13;78.74
55540;BME280;41384;51.418;7.286;2023-03-01T05:45:23;101052.59;;;-1.07;78.09
55540;BME280;41384;51.418;7.286;2023-03-01T05:47:49;101055.66;;;-0.88;77.79
55540;BME280;41384;51.418;7.286;2023-03-01T05:50:23;101054.56;;;-1.11;78.97
55540;BME280;41384;51.418;7.286;2023-03-01T05:52:50;101059.13;;;-1.14;78.58
55540;BME280;41384;51.418;7.286;2023-03-01T05:55:17;101056.84;;;-1.61;79.83
55540;BME280;41384;51.418;7.286;2023-03-01T05:57:42;101049.00;;;-1.32;80.75
55540;BME280;41384;51.418;7.286;2023-03-01T06:00:09;101055.25;;;-1.22;80.02
55540;BME280;41384;51.418;7.286;2023-03-01T06:02:34;101052.81;;;-1.10;81.57
55540;BME280;41384;51.418;7.286;2023-03-01T06:05:00;101058.25;;;-1.28;82.14
55540;BME280;41384;51.418;7.286;2023-03-01T06:07:25;101051.81;;;-1.22;82.56
55540;BME280;41384;51.418;7.286;2023-03-01T06:09:51;101046.75;;;-1.24;82.57
55540;BME280;41384;51.418;7.286;2023-03-01T06:12:16;101054.00;;;-1.29;82.95
55540;BME280;41384;51.418;7.286;2023-03-01T06:14:42;101058.59;;;-1.20;82.11
55540;BME280;41384;51.418;7.286;2023-03-01T06:17:07;101063.06;;;-1.64;83.85
55540;BME280;41384;51.418;7.286;2023-03-01T06:19:32;101054.19;;;-1.32;84.15
55540;BME280;41384;51.418;7.286;2023-03-01T06:21:58;101052.91;;;-1.39;83.85
55540;BME280;41384;51.418;7.286;2023-03-01T06:24:23;101057.84;;;-1.22;82.64
55540;BME280;41384;51.418;7.286;2023-03-01T06:26:48;101053.94;;;-1.14;82.09
55540;BME280;41384;51.418;7.286;2023-03-01T06:29:13;101051.09;;;-1.24;81.26
55540;BME280;41384;51.418;7.286;2023-03-01T06:31:39;101048.97;;;-1.18;82.25
55540;BME280;41384;51.418;7.286;2023-03-01T06:34:05;101051.16;;;-1.39;83.62
55540;BME280;41384;51.418;7.286;2023-03-01T06:36:30;101045.91;;;-1.24;82.47
55540;BME280;41384;51.418;7.286;2023-03-01T06:38:55;101050.91;;;-1.21;82.86
55540;BME280;41384;51.418;7.286;2023-03-01T06:41:20;101056.78;;;-0.92;79.95
55540;BME280;41384;51.418;7.286;2023-03-01T06:43:46;101060.56;;;-0.70;78.28
55540;BME280;41384;51.418;7.286;2023-03-01T06:46:11;101060.78;;;-1.00;79.51
55540;BME280;41384;51.418;7.286;2023-03-01T06:48:36;101053.59;;;-0.82;79.22
55540;BME280;41384;51.418;7.286;2023-03-01T06:51:02;101049.25;;;-0.69;79.04
55540;BME280;41384;51.418;7.286;2023-03-01T06:53:28;101041.91;;;-0.62;77.72
55540;BME280;41384;51.418;7.286;2023-03-01T06:55:57;101054.09;;;-0.90;79.07
55540;BME280;41384;51.418;7.286;2023-03-01T06:58:24;101044.38;;;-0.74;78.62
55540;BME280;41384;51.418;7.286;2023-03-01T07:00:49;101048.09;;;-0.65;78.40
55540;BME280;41384;51.418;7.286;2023-03-01T07:03:14;101047.91;;;-0.75;79.17
55540;BME280;41384;51.418;7.286;2023-03-01T07:05:40;101044.28;;;-0.59;79.04
55540;BME280;41384;51.418;7.286;2023-03-01T07:08:05;101037.94;;;-0.68;78.82
55540;BME280;41384;51.418;7.286;2023-03-01T07:10:31;101034.53;;;-0.55;79.37
55540;BME280;41384;51.418;7.286;2023-03-01T07:12:57;101033.50;;;-0.79;78.68
55540;BME280;41384;51.418;7.286;2023-03-01T07:15:22;101028.81;;;-0.74;79.50
55540;BME280;41384;51.418;7.286;2023-03-01T07:17:48;101033.59;;;-0.54;79.73
55540;BME280;41384;51.418;7.286;2023-03-01T07:20:16;101030.91;;;-0.40;79.19
55540;BME280;41384;51.418;7.286;2023-03-01T07:22:41;101029.97;;;-0.52;79.09
55540;BME280;41384;51.418;7.286;2023-03-01T07:25:08;101033.41;;;-0.64;78.37
55540;BME280;41384;51.418;7.286;2023-03-01T07:27:33;101036.09;;;-0.53;79.42
55540;BME280;41384;51.418;7.286;2023-03-01T07:29:58;101028.19;;;-0.38;78.96
55540;BME280;41384;51.418;7.286;2023-03-01T07:32:24;101018.22;;;-0.57;80.81
55540;BME280;41384;51.418;7.286;2023-03-01T07:34:51;101026.75;;;-0.68;81.28
55540;BME280;41384;51.418;7.286;2023-03-01T07:37:16;101017.72;;;-0.63;80.94
55540;BME280;41384;51.418;7.286;2023-03-01T07:39:42;101026.13;;;-0.46;79.63
55540;BME280;41384;51.418;7.286;2023-03-01T07:42:07;101016.47;;;-0.83;79.44
55540;BME280;41384;51.418;7.286;2023-03-01T07:44:33;101010.16;;;-0.40;78.57
55540;BME280;41384;51.418;7.286;2023-03-01T07:47:00;101019.28;;;-0.47;79.43
55540;BME280;41384;51.418;7.286;2023-03-01T07:49:25;101029.03;;;-0.51;80.16
55540;BME280;41384;51.418;7.286;2023-03-01T07:51:51;101018.97;;;-0.30;78.29
55540;BME280;41384;51.418;7.286;2023-03-01T07:54:17;101031.94;;;-0.42;80.21
55540;BME280;41384;51.418;7.286;2023-03-01T07:56:43;101033.59;;;-0.41;80.23
55540;BME280;41384;51.418;7.286;2023-03-01T07:59:08;101027.00;;;0.05;77.93
55540;BME280;41384;51.418;7.286;2023-03-01T08:01:33;101019.84;;;-0.05;77.50
55540;BME280;41384;51.418;7.286;2023-03-01T08:03:59;101024.66;;;-0.24;77.13
55540;BME280;41384;51.418;7.286;2023-03-01T08:06:24;101025.09;;;-0.31;77.05
55540;BME280;41384;51.418;7.286;2023-03-01T08:08:49;101023.06;;;-0.01;78.17
55540;BME280;41384;51.418;7.286;2023-03-01T08:11:15;101024.09;;;0.09;77.54
55540;BME280;41384;51.418;7.286;2023-03-01T08:13:41;101025.88;;;-0.04;78.40
55540;BME280;41384;51.418;7.286;2023-03-01T08:16:15;101024.97;;;0.21;78.09
55540;BME280;41384;51.418;7.286;2023-03-01T08:18:41;101021.50;;;0.34;77.72
55540;BME280;41384;51.418;7.286;2023-03-01T08:21:09;101023.59;;;0.28;77.63
55540;BME280;41384;51.418;7.286;2023-03-01T08:23:35;101028.78;;;0.66;76.40
55540;BME280;41384;51.418;7.286;2023-03-01T08:26:18;101020.84;;;0.67;75.35
55540;BME280;41384;51.418;7.286;2023-03-01T08:28:44;101020.13;;;0.65;75.39
55540;BME280;41384;51.418;7.286;2023-03-01T08:31:19;101018.59;;;0.63;75.60
55540;BME280;41384;51.418;7.286;2023-03-01T08:33:46;101015.44;;;0.70;75.61
55540;BME280;41384;51.418;7.286;2023-03-01T08:36:19;101006.59;;;0.73;75.44
55540;BME280;41384;51.418;7.286;2023-03-01T08:38:46;101012.78;;;0.59;75.23
55540;BME280;41384;51.418;7.286;2023-03-01T08:41:11;101015.00;;;0.88;75.18
55540;BME280;41384;51.418;7.286;2023-03-01T08:43:36;101012.66;;;0.85;74.59
55540;BME280;41384;51.418;7.286;2023-03-01T08:46:01;101011.16;;;0.94;74.87
55540;BME280;41384;51.418;7.286;2023-03-01T08:48:28;101003.16;;;1.08;74.36
55540;BME280;41384;51.418;7.286;2023-03-01T08:50:54;100994.41;;;1.09;73.83
55540;BME280;41384;51.418;7.286;2023-03-01T08:53:19;100987.91;;;1.04;74.34
55540;BME280;41384;51.418;7.286;2023-03-01T08:55:45;100991.00;;;1.20;75.04
55540;BME280;41384;51.418;7.286;2023-03-01T08:58:10;100989.59;;;1.16;74.12
55540;BME280;41384;51.418;7.286;2023-03-01T09:00:35;100994.56;;;1.30;75.07
55540;BME280;41384;51.418;7.286;2023-03-01T09:03:01;100993.47;;;1.22;73.36
55540;BME280;41384;51.418;7.286;2023-03-01T09:05:33;100985.47;;;1.36;73.63
55540;BME280;41384;51.418;7.286;2023-03-01T09:07:59;100987.00;;;1.39;72.84
55540;BME280;41384;51.418;7.286;2023-03-01T09:10:24;100990.44;;;1.39;72.85
55540;BME280;41384;51.418;7.286;2023-03-01T09:12:51;100991.97;;;1.53;71.48
55540;BME280;41384;51.418;7.286;2023-03-01T09:15:16;100996.13;;;1.67;71.11
55540;BME280;41384;51.418;7.286;2023-03-01T09:17:41;100988.56;;;1.64;70.49
55540;BME280;41384;51.418;7.286;2023-03-01T09:20:07;100998.50;;;1.48;70.67
55540;BME280;41384;51.418;7.286;2023-03-01T09:22:35;100990.31;;;1.64;69.14
55540;BME280;41384;51.418;7.286;2023-03-01T09:25:00;100987.22;;;1.70;70.18
55540;BME280;41384;51.418;7.286;2023-03-01T09:27:26;100981.47;;;1.66;69.53
55540;BME280;41384;51.418;7.286;2023-03-01T09:29:51;100974.34;;;1.80;69.33
55540;BME280;41384;51.418;7.286;2023-03-01T09:32:16;100969.59;;;1.85;68.45
55540;BME280;41384;51.418;7.286;2023-03-01T09:34:42;100971.13;;;1.99;68.04
55540;BME280;41384;51.418;7.286;2023-03-01T09:37:27;100958.09;;;1.99;66.80
55540;BME280;41384;51.418;7.286;2023-03-01T09:39:52;100966.38;;;2.04;67.16
55540;BME280;41384;51.418;7.286;2023-03-01T09:42:17;100972.50;;;2.14;66.74
55540;BME280;41384;51.418;7.286;2023-03-01T09:44:52;100961.94;;;2.16;65.72
55540;BME280;41384;51.418;7.286;2023-03-01T09:47:23;100965.75;;;2.23;66.08
55540;BME280;41384;51.418;7.286;2023-03-01T09:50:02;100958.00;;;2.33;65.57
55540;BME280;41384;51.418;7.286;2023-03-01T09:52:34;100952.63;;;2.46;65.77
55540;BME280;41384;51.418;7.286;2023-03-01T09:55:08;100956.44;;;2.42;66.00
55540;BME280;41384;51.418;7.286;2023-03-01T09:57:51;100958.84;;;2.55;65.11
55540;BME280;41384;51.418;7.286;2023-03-01T10:00:33;100950.25;;;2.75;64.56
55540;BME280;41384;51.418;7.286;2023-03-01T10:05:56;100949.34;;;2.86;64.73
55540;BME280;41384;51.418;7.286;2023-03-01T10:08:51;100939.75;;;2.87;63.55
55540;BME280;41384;51.418;7.286;2023-03-01T10:11:26;100936.06;;;2.89;63.15
55540;BME280;41384;51.418;7.286;2023-03-01T10:14:06;100941.34;;;2.99;63.28
55540;BME280;41384;51.418;7.286;2023-03-01T10:16:51;100944.56;;;2.91;63.32
55540;BME280;41384;51.418;7.286;2023-03-01T10:19:36;100949.50;;;2.85;62.43
55540;BME280;41384;51.418;7.286;2023-03-01T10:22:12;100939.25;;;2.93;63.07
55540;BME280;41384;51.418;7.286;2023-03-01T10:24:38;100952.56;;;3.00;61.55
55540;BME280;41384;51.418;7.286;2023-03-01T10:29:45;100946.66;;;3.19;61.08
55540;BME280;41384;51.418;7.286;2023-03-01T10:32:11;100939.66;;;3.19;60.72
55540;BME280;41384;51.418;7.286;2023-03-01T10:34:36;100933.41;;;3.32;59.82
55540;BME280;41384;51.418;7.286;2023-03-01T10:37:15;100919.56;;;3.41;60.39
55540;BME280;41384;51.418;7.286;2023-03-01T10:39:58;100931.94;;;3.49;60.83
55540;BME280;41384;51.418;7.286;2023-03-01T10:42:29;100920.47;;;3.61;60.59
55540;BME280;41384;51.418;7.286;2023-03-01T10:44:55;100912.91;;;3.58;60.76
55540;BME280;41384;51.418;7.286;2023-03-01T10:47:26;100905.19;;;3.57;60.36
55540;BME280;41384;51.418;7.286;2023-03-01T10:50:00;100913.84;;;3.57;60.55
55540;BME280;41384;51.418;7.286;2023-03-01T10:52:37;100898.56;;;3.53;60.70
55540;BME280;41384;51.418;7.286;2023-03-01T10:58:07;100888.03;;;3.64;59.24
55540;BME280;41384;51.418;7.286;2023-03-01T11:00:33;100883.66;;;3.84;58.54
55540;BME280;41384;51.418;7.286;2023-03-01T11:03:14;100886.25;;;3.74;58.00
55540;BME280;41384;51.418;7.286;2023-03-01T11:05:53;100885.44;;;3.84;59.06
55540;BME280;41384;51.418;7.286;2023-03-01T11:08:49;100889.31;;;3.99;58.48
55540;BME280;41384;51.418;7.286;2023-03-01T11:11:25;100881.06;;;4.04;58.52
55540;BME280;41384;51.418;7.286;2023-03-01T11:16:29;100885.34;;;4.15;58.64
55540;BME280;41384;51.418;7.286;2023-03-01T11:19:33;100872.84;;;4.08;58.71
55540;BME280;41384;51.418;7.286;2023-03-01T11:22:34;100877.22;;;3.98;57.88
55540;BME280;41384;51.418;7.286;2023-03-01T11:24:54;100872.81;;;4.18;57.90
55540;BME280;41384;51.418;7.286;2023-03-01T11:27:46;100861.81;;;4.15;57.41
55540;BME280;41384;51.418;7.286;2023-03-01T11:30:25;100861.66;;;4.16;57.62
55540;BME280;41384;51.418;7.286;2023-03-01T11:33:03;100854.53;;;4.28;57.52
55540;BME280;41384;51.418;7.286;2023-03-01T11:35:31;100856.28;;;4.47;57.45
55540;BME280;41384;51.418;7.286;2023-03-01T11:38:03;100867.47;;;4.20;56.24
55540;BME280;41384;51.418;7.286;2023-03-01T11:41:05;100857.53;;;4.23;56.50
55540;BME280;41384;51.418;7.286;2023-03-01T11:54:57;100867.97;;;4.63;56.41
55540;BME280;41384;51.418;7.286;2023-03-01T11:57:47;100860.50;;;4.68;56.36
55540;BME280;41384;51.418;7.286;2023-03-01T12:03:16;100845.84;;;4.85;55.73
55540;BME280;41384;51.418;7.286;2023-03-01T12:06:07;100852.41;;;4.99;55.65
55540;BME280;41384;51.418;7.286;2023-03-01T12:08:46;100842.50;;;5.03;55.60
55540;BME280;41384;51.418;7.286;2023-03-01T12:14:18;100838.13;;;4.93;55.69
55540;BME280;41384;51.418;7.286;2023-03-01T12:17:16;100845.44;;;4.90;56.17
55540;BME280;41384;51.418;7.286;2023-03-01T12:20:12;100833.00;;;5.02;54.46
55540;BME280;41384;51.418;7.286;2023-03-01T12:23:03;100837.59;;;4.90;53.84
55540;BME280;41384;51.418;7.286;2023-03-01T12:25:41;100828.94;;;4.79;53.83
55540;BME280;41384;51.418;7.286;2023-03-01T12:28:42;100820.94;;;4.81;54.23
55540;BME280;41384;51.418;7.286;2023-03-01T12:31:32;100814.53;;;5.03;54.26
55540;BME280;41384;51.418;7.286;2023-03-01T12:36:58;100814.53;;;5.31;54.78
55540;BME280;41384;51.418;7.286;2023-03-01T12:42:44;100805.69;;;5.14;52.96
55540;BME280;41384;51.418;7.286;2023-03-01T12:45:34;100809.09;;;5.15;52.63
55540;BME280;41384;51.418;7.286;2023-03-01T12:50:42;100805.38;;;5.17;52.14
55540;BME280;41384;51.418;7.286;2023-03-01T12:53:20;100792.09;;;5.29;53.25
55540;BME280;41384;51.418;7.286;2023-03-01T12:55:47;100805.69;;;5.14;52.66
55540;BME280;41384;51.418;7.286;2023-03-01T12:58:35;100796.56;;;5.18;52.50
55540;BME280;41384;51.418;7.286;2023-03-01T13:01:54;100799.50;;;5.33;52.71
55540;BME280;41384;51.418;7.286;2023-03-01T13:04:35;100797.78;;;5.42;51.88
55540;BME280;41384;51.418;7.286;2023-03-01T13:09:40;100782.25;;;5.40;51.19
55540;BME280;41384;51.418;7.286;2023-03-01T13:12:49;100783.25;;;5.30;51.03
55540;BME280;41384;51.418;7.286;2023-03-01T13:17:47;100781.66;;;5.47;51.00
55540;BME280;41384;51.418;7.286;2023-03-01T13:20:15;100784.72;;;5.60;50.61
55540;BME280;41384;51.418;7.286;2023-03-01T13:22:41;100771.38;;;5.53;50.74
55540;BME280;41384;51.418;7.286;2023-03-01T13:25:16;100771.78;;;5.40;50.33
55540;BME280;41384;51.418;7.286;2023-03-01T13:27:42;100769.16;;;5.40;50.57
55540;BME280;41384;51.418;7.286;2023-03-01T13:30:39;100767.44;;;5.67;50.85
55540;BME280;41384;51.418;7.286;2023-03-01T13:35:59;100767.66;;;5.56;50.46
55540;BME280;41384;51.418;7.286;2023-03-01T13:38:45;100765.25;;;5.45;50.17
55540;BME280;41384;51.418;7.286;2023-03-01T13:41:12;100772.66;;;5.49;50.84
55540;BME280;41384;51.418;7.286;2023-03-01T13:43:42;100756.28;;;5.47;50.18
55540;BME280;41384;51.418;7.286;2023-03-01T13:46:14;100756.72;;;5.61;49.83
55540;BME280;41384;51.418;7.286;2023-03-01T13:48:40;100749.09;;;5.67;49.11
55540;BME280;41384;51.418;7.286;2023-03-01T13:51:09;100743.53;;;5.70;48.45
55540;BME280;41384;51.418;7.286;2023-03-01T13:53:46;100744.75;;;5.76;48.18
55540;BME280;41384;51.418;7.286;2023-03-01T13:56:19;100751.63;;;5.77;48.90
55540;BME280;41384;51.418;7.286;2023-03-01T13:58:58;100741.59;;;5.73;49.01
55540;BME280;41384;51.418;7.286;2023-03-01T14:01:34;100750.13;;;5.57;48.60
55540;BME280;41384;51.418;7.286;2023-03-01T14:04:01;100750.28;;;5.55;49.05